createdAt,value
2023-03-23T15:58:50.944Z,2.50
2023-03-23T16:01:20.807Z,2.50
2023-03-23T16:03:56.595Z,2.70
2023-03-23T16:06:28.295Z,2.67
2023-03-23T16:08:56.775Z,2.55
2023-03-23T16:11:26.382Z,2.53
2023-03-23T16:13:53.404Z,2.65
2023-03-23T16:16:51.024Z,2.47
2023-03-23T16:19:24.759Z,2.50
2023-03-23T16:21:51.823Z,2.28
2023-03-23T16:24:19.307Z,2.28
2023-03-23T16:26:46.956Z,2.42
2023-03-23T16:29:33.709Z,2.42
2023-03-23T16:32:03.550Z,2.35
2023-03-23T16:34:33.840Z,2.45
2023-03-23T16:37:00.785Z,2.33
2023-03-23T16:39:29.732Z,2.30
2023-03-23T16:41:57.620Z,2.58
2023-03-23T16:44:24.571Z,2.60
2023-03-23T16:46:51.453Z,2.53
2023-03-23T16:49:25.407Z,2.50
2023-03-23T16:51:52.393Z,2.35
2023-03-23T16:54:19.252Z,2.70
2023-03-23T16:56:47.124Z,2.58
2023-03-23T16:59:15.975Z,2.72
2023-03-23T17:01:43.413Z,2.85
2023-03-23T17:04:11.118Z,3.37
2023-03-23T17:06:37.994Z,6.15
2023-03-23T17:09:04.892Z,13.18
2023-03-23T17:11:31.747Z,13.13
2023-03-23T17:13:58.569Z,17.20
2023-03-23T17:16:25.640Z,26.60
2023-03-23T17:18:52.555Z,34.55
2023-03-23T17:21:20.838Z,33.30
2023-03-23T17:23:47.717Z,32.45
2023-03-23T17:26:14.614Z,35.92
2023-03-23T17:28:41.533Z,32.35
2023-03-23T17:31:08.664Z,33.85
2023-03-23T17:33:35.616Z,35.58
2023-03-23T17:36:02.507Z,36.08
2023-03-23T17:38:29.424Z,36.45
2023-03-23T17:41:00.807Z,35.45
2023-03-23T17:43:28.101Z,47.70
2023-03-23T17:45:54.945Z,53.90
2023-03-23T17:48:22.016Z,59.78
2023-03-23T17:50:49.715Z,67.72
2023-03-23T17:53:18.635Z,68.43
2023-03-23T17:55:46.233Z,63.78
2023-03-23T17:58:13.220Z,67.80
2023-03-23T18:00:40.155Z,30.35
2023-03-23T18:03:07.129Z,6.90
2023-03-23T18:05:35.018Z,3.20
2023-03-23T18:08:01.868Z,4.32
2023-03-23T18:10:28.715Z,5.97
2023-03-23T18:12:55.725Z,4.53
2023-03-23T18:15:22.657Z,4.22
2023-03-23T18:17:58.380Z,4.60
2023-03-23T18:20:25.485Z,3.70
2023-03-23T18:22:52.443Z,4.07
2023-03-23T18:25:19.578Z,4.25
2023-03-23T18:27:46.443Z,4.47
2023-03-23T18:30:13.575Z,5.75
2023-03-23T18:32:40.923Z,7.07
2023-03-23T18:35:10.092Z,5.25
2023-03-23T18:37:39.541Z,5.70
2023-03-23T18:40:10.971Z,4.20
2023-03-23T18:42:41.337Z,9.50
2023-03-23T18:45:09.324Z,14.60
2023-03-23T18:47:37.836Z,8.65
2023-03-23T18:50:07.095Z,5.32
2023-03-23T18:52:34.271Z,5.05
2023-03-23T18:55:01.385Z,3.58
2023-03-23T18:57:28.492Z,3.53
2023-03-23T18:59:55.640Z,3.55
2023-03-23T19:02:22.624Z,3.28
2023-03-23T19:04:49.761Z,4.90
2023-03-23T19:07:17.633Z,4.70
2023-03-23T19:09:46.305Z,5.72
2023-03-23T19:12:13.430Z,14.80
2023-03-23T19:14:40.944Z,15.00
2023-03-23T19:17:08.154Z,11.02
2023-03-23T19:19:36.936Z,7.75
2023-03-23T19:22:05.774Z,6.40
2023-03-23T19:24:32.662Z,5.18
2023-03-23T19:27:00.204Z,5.45
2023-03-23T19:29:27.543Z,4.62
2023-03-23T19:31:55.973Z,3.92
2023-03-23T19:34:25.064Z,4.10
2023-03-23T19:36:56.281Z,4.82
2023-03-23T19:39:26.816Z,5.05
2023-03-23T19:41:53.817Z,4.93
2023-03-23T19:44:20.854Z,5.97
2023-03-23T19:46:48.406Z,6.72
2023-03-23T19:49:15.708Z,6.28
2023-03-23T19:51:42.593Z,6.60
2023-03-23T19:54:09.531Z,5.00
2023-03-23T19:56:36.983Z,5.30
2023-03-23T19:59:04.592Z,4.87
2023-03-23T20:01:32.082Z,5.18
2023-03-23T20:04:00.327Z,5.07
2023-03-23T20:06:29.299Z,5.30
2023-03-23T20:08:56.753Z,5.60
2023-03-23T20:11:23.773Z,6.12
2023-03-23T20:13:50.898Z,5.15
2023-03-23T20:16:18.250Z,5.00
2023-03-23T20:18:46.458Z,5.55
2023-03-23T20:21:22.377Z,5.07
2023-03-23T20:23:52.273Z,4.80
2023-03-23T20:26:23.232Z,3.78
2023-03-23T20:28:50.746Z,3.97
2023-03-23T20:31:23.169Z,3.67
2023-03-23T20:34:00.707Z,3.60
2023-03-23T20:36:45.283Z,3.80
2023-03-23T20:39:21.564Z,3.30
2023-03-23T20:41:50.921Z,3.83
2023-03-23T20:44:19.084Z,3.70
2023-03-23T20:46:47.346Z,3.92
2023-03-23T20:49:16.074Z,4.10
2023-03-23T20:51:43.847Z,4.18
2023-03-23T20:54:11.209Z,3.75
2023-03-23T20:56:40.594Z,3.62
2023-03-23T20:59:07.617Z,3.95
2023-03-23T21:01:35.119Z,3.75
2023-03-23T21:04:03.320Z,4.10
2023-03-23T21:06:31.194Z,3.75
2023-03-23T21:08:58.554Z,4.20
2023-03-23T21:11:27.013Z,4.25
2023-03-23T21:13:54.195Z,4.12
2023-03-23T21:16:21.331Z,4.28
2023-03-23T21:18:48.428Z,4.05
2023-03-23T21:21:18.439Z,4.30
2023-03-23T21:23:52.950Z,4.30
2023-03-23T21:26:22.719Z,4.80
2023-03-23T21:28:51.070Z,5.50
2023-03-23T21:31:18.397Z,5.37
2023-03-23T21:33:45.633Z,5.40
2023-03-23T21:36:12.881Z,4.90
2023-03-23T21:38:40.719Z,4.82
2023-03-23T21:41:10.844Z,4.60
2023-03-23T21:43:38.341Z,4.10
2023-03-23T21:46:06.123Z,4.18
2023-03-23T21:48:35.908Z,4.32
2023-03-23T21:51:10.323Z,4.55
2023-03-23T21:53:37.329Z,4.43
2023-03-23T21:56:06.372Z,3.70
2023-03-23T21:58:33.593Z,3.97
2023-03-23T22:01:02.458Z,4.10
2023-03-23T22:03:33.283Z,4.20
2023-03-23T22:06:09.265Z,4.10
2023-03-23T22:08:37.632Z,3.78
2023-03-23T22:11:07.588Z,4.62
2023-03-23T22:13:36.073Z,4.50
2023-03-23T22:16:04.270Z,4.40
2023-03-23T22:18:33.320Z,3.60
2023-03-23T22:21:00.603Z,4.30
2023-03-23T22:23:27.704Z,4.07
2023-03-23T22:25:55.969Z,3.60
2023-03-23T22:28:23.542Z,3.80
2023-03-23T22:30:50.579Z,3.83
2023-03-23T22:33:17.932Z,3.87
2023-03-23T22:35:47.376Z,3.90
2023-03-23T22:38:14.834Z,4.25
2023-03-23T22:40:42.828Z,4.20
2023-03-23T22:43:10.050Z,4.07
2023-03-23T22:45:37.013Z,3.90
2023-03-23T22:48:05.907Z,3.62
2023-03-23T22:50:32.892Z,4.25
2023-03-23T22:52:59.774Z,4.30
2023-03-23T22:55:27.250Z,4.12
2023-03-23T22:57:54.182Z,5.00
2023-03-23T23:00:21.117Z,4.40
2023-03-23T23:02:48.062Z,4.20
2023-03-23T23:05:15.335Z,4.15
2023-03-23T23:07:42.822Z,4.20
2023-03-23T23:10:09.811Z,3.97
2023-03-23T23:12:36.765Z,4.43
2023-03-23T23:15:06.065Z,4.18
2023-03-23T23:17:34.923Z,4.32
2023-03-23T23:20:05.702Z,4.60
2023-03-23T23:22:33.303Z,5.15
2023-03-23T23:25:00.811Z,5.78
2023-03-23T23:27:27.752Z,5.10
2023-03-23T23:29:54.742Z,4.35
2023-03-23T23:32:21.671Z,4.47
2023-03-23T23:34:48.678Z,4.65
2023-03-23T23:37:15.716Z,5.05
2023-03-23T23:39:42.689Z,4.20
2023-03-23T23:42:09.844Z,4.00
2023-03-23T23:44:37.392Z,4.12
2023-03-23T23:47:05.079Z,3.85
2023-03-23T23:49:34.371Z,3.85
2023-03-23T23:52:01.332Z,4.30
2023-03-23T23:54:31.323Z,4.37
2023-03-23T23:56:59.976Z,4.10
2023-03-23T23:59:27.346Z,3.90
